sensor_id;sensor_type;location;lat;lon;timestamp;temperature;humidity
5796;DHT22;2924;51.458;7.046;2022-07-23T00:01:17;15.20;99.90
5796;DHT22;2924;51.458;7.046;2022-07-23T00:03:43;15.10;99.90
5796;DHT22;2924;51.458;7.046;2022-07-23T00:06:09;15.10;99.90
5796;DHT22;2924;51.458;7.046;2022-07-23T00:08:34;15.20;99.90
5796;DHT22;2924;51.458;7.046;2022-07-23T00:11:00;15.20;99.90
5796;DHT22;2924;51.458;7.046;2022-07-23T00:13:26;15.20;99.90
5796;DHT22;2924;51.458;7.046;2022-07-23T00:15:52;15.20;99.90
5796;DHT22;2924;51.458;7.046;2022-07-23T00:18:18;15.20;99.90
5796;DHT22;2924;51.458;7.046;2022-07-23T00:20:44;15.10;99.90
5796;DHT22;2924;51.458;7.046;2022-07-23T00:23:09;15.20;99.90
5796;DHT22;2924;51.458;7.046;2022-07-23T00:25:35;15.10;99.90
5796;DHT22;2924;51.458;7.046;2022-07-23T00:28:02;15.20;99.90
5796;DHT22;2924;51.458;7.046;2022-07-23T00:30:29;15.10;99.90
5796;DHT22;2924;51.458;7.046;2022-07-23T00:33:00;15.10;99.90
5796;DHT22;2924;51.458;7.046;2022-07-23T00:35:30;15.10;99.90
5796;DHT22;2924;51.458;7.046;2022-07-23T00:37:57;15.10;99.90
5796;DHT22;2924;51.458;7.046;2022-07-23T00:40:24;15.10;99.90
5796;DHT22;2924;51.458;7.046;2022-07-23T00:42:50;15.10;99.90
5796;DHT22;2924;51.458;7.046;2022-07-23T00:45:16;15.10;99.90
5796;DHT22;2924;51.458;7.046;2022-07-23T00:47:42;15.10;99.90
5796;DHT22;2924;51.458;7.046;2022-07-23T00:50:08;15.10;99.90
5796;DHT22;2924;51.458;7.046;2022-07-23T00:52:36;15.20;99.90
5796;DHT22;2924;51.458;7.046;2022-07-23T00:55:03;15.20;99.90
5796;DHT22;2924;51.458;7.046;2022-07-23T00:57:29;15.10;99.90
5796;DHT22;2924;51.458;7.046;2022-07-23T00:59:55;15.10;99.90
5796;DHT22;2924;51.458;7.046;2022-07-23T01:02:21;15.00;99.90
5796;DHT22;2924;51.458;7.046;2022-07-23T01:04:46;15.00;99.90
5796;DHT22;2924;51.458;7.046;2022-07-23T01:07:12;14.90;99.90
5796;DHT22;2924;51.458;7.046;2022-07-23T01:09:38;15.00;99.90
5796;DHT22;2924;51.458;7.046;2022-07-23T01:12:04;15.00;99.90
5796;DHT22;2924;51.458;7.046;2022-07-23T01:14:30;15.00;99.90
5796;DHT22;2924;51.458;7.046;2022-07-23T01:16:56;14.90;99.90
5796;DHT22;2924;51.458;7.046;2022-07-23T01:19:22;14.90;99.90
5796;DHT22;2924;51.458;7.046;2022-07-23T01:21:49;14.90;99.90
5796;DHT22;2924;51.458;7.046;2022-07-23T01:24:16;15.00;99.90
5796;DHT22;2924;51.458;7.046;2022-07-23T01:26:44;14.90;99.90
5796;DHT22;2924;51.458;7.046;2022-07-23T01:29:10;14.90;99.90
5796;DHT22;2924;51.458;7.046;2022-07-23T01:31:36;14.90;99.90
5796;DHT22;2924;51.458;7.046;2022-07-23T01:34:02;14.90;99.90
5796;DHT22;2924;51.458;7.046;2022-07-23T01:36:28;14.90;99.90
5796;DHT22;2924;51.458;7.046;2022-07-23T01:38:54;14.90;99.90
5796;DHT22;2924;51.458;7.046;2022-07-23T01:41:20;14.90;99.90
5796;DHT22;2924;51.458;7.046;2022-07-23T01:43:46;14.90;99.90
5796;DHT22;2924;51.458;7.046;2022-07-23T01:46:12;14.90;99.90
5796;DHT22;2924;51.458;7.046;2022-07-23T01:48:37;15.00;99.90
5796;DHT22;2924;51.458;7.046;2022-07-23T01:51:03;15.00;99.90
5796;DHT22;2924;51.458;7.046;2022-07-23T01:53:29;15.00;99.90
5796;DHT22;2924;51.458;7.046;2022-07-23T01:55:57;15.00;99.90
5796;DHT22;2924;51.458;7.046;2022-07-23T01:58:23;15.00;99.90
5796;DHT22;2924;51.458;7.046;2022-07-23T02:00:49;15.00;99.90
5796;DHT22;2924;51.458;7.046;2022-07-23T02:03:15;15.00;99.90
5796;DHT22;2924;51.458;7.046;2022-07-23T02:05:40;15.00;99.90
5796;DHT22;2924;51.458;7.046;2022-07-23T02:08:06;14.90;99.90
5796;DHT22;2924;51.458;7.046;2022-07-23T02:10:32;14.90;99.90
5796;DHT22;2924;51.458;7.046;2022-07-23T02:12:58;14.90;99.90
5796;DHT22;2924;51.458;7.046;2022-07-23T02:15:23;14.90;99.90
5796;DHT22;2924;51.458;7.046;2022-07-23T02:17:49;14.90;99.90
5796;DHT22;2924;51.458;7.046;2022-07-23T02:20:15;14.90;99.90
5796;DHT22;2924;51.458;7.046;2022-07-23T02:22:40;14.90;99.90
5796;DHT22;2924;51.458;7.046;2022-07-23T02:25:07;14.80;99.90
5796;DHT22;2924;51.458;7.046;2022-07-23T02:27:33;14.80;99.90
5796;DHT22;2924;51.458;7.046;2022-07-23T02:29:59;14.80;99.90
5796;DHT22;2924;51.458;7.046;2022-07-23T02:32:25;14.80;99.90
5796;DHT22;2924;51.458;7.046;2022-07-23T02:34:51;14.70;99.90
5796;DHT22;2924;51.458;7.046;2022-07-23T02:37:17;14.70;99.90
5796;DHT22;2924;51.458;7.046;2022-07-23T02:39:43;14.60;99.90
5796;DHT22;2924;51.458;7.046;2022-07-23T02:42:09;14.60;99.90
5796;DHT22;2924;51.458;7.046;2022-07-23T02:44:34;14.50;99.90
5796;DHT22;2924;51.458;7.046;2022-07-23T02:47:00;14.40;99.90
5796;DHT22;2924;51.458;7.046;2022-07-23T02:49:26;14.40;99.90
5796;DHT22;2924;51.458;7.046;2022-07-23T02:51:52;14.30;99.90
5796;DHT22;2924;51.458;7.046;2022-07-23T02:54:18;14.20;99.90
5796;DHT22;2924;51.458;7.046;2022-07-23T02:56:43;14.20;99.90
5796;DHT22;2924;51.458;7.046;2022-07-23T02:59:09;14.20;99.90
5796;DHT22;2924;51.458;7.046;2022-07-23T03:01:35;14.20;99.90
5796;DHT22;2924;51.458;7.046;2022-07-23T03:04:01;14.30;99.90
5796;DHT22;2924;51.458;7.046;2022-07-23T03:06:26;14.30;99.90
5796;DHT22;2924;51.458;7.046;2022-07-23T03:08:52;14.30;99.90
5796;DHT22;2924;51.458;7.046;2022-07-23T03:11:18;14.30;99.90
5796;DHT22;2924;51.458;7.046;2022-07-23T03:13:43;14.30;99.90
5796;DHT22;2924;51.458;7.046;2022-07-23T03:16:09;14.30;99.90
5796;DHT22;2924;51.458;7.046;2022-07-23T03:18:35;14.30;99.90
5796;DHT22;2924;51.458;7.046;2022-07-23T03:21:01;14.30;99.90
5796;DHT22;2924;51.458;7.046;2022-07-23T03:23:27;14.30;99.90
5796;DHT22;2924;51.458;7.046;2022-07-23T03:25:52;14.20;99.90
5796;DHT22;2924;51.458;7.046;2022-07-23T03:28:18;14.00;99.90
5796;DHT22;2924;51.458;7.046;2022-07-23T03:30:46;14.00;99.90
5796;DHT22;2924;51.458;7.046;2022-07-23T03:33:16;13.90;99.90
5796;DHT22;2924;51.458;7.046;2022-07-23T03:35:46;13.80;99.90
5796;DHT22;2924;51.458;7.046;2022-07-23T03:38:12;13.60;99.90
5796;DHT22;2924;51.458;7.046;2022-07-23T03:40:37;13.50;99.90
5796;DHT22;2924;51.458;7.046;2022-07-23T03:43:03;13.40;99.90
5796;DHT22;2924;51.458;7.046;2022-07-23T03:45:29;13.40;99.90
5796;DHT22;2924;51.458;7.046;2022-07-23T03:47:55;13.40;99.90
5796;DHT22;2924;51.458;7.046;2022-07-23T03:50:21;13.40;99.90
5796;DHT22;2924;51.458;7.046;2022-07-23T03:52:47;13.30;99.90
5796;DHT22;2924;51.458;7.046;2022-07-23T03:55:12;13.20;99.90
5796;DHT22;2924;51.458;7.046;2022-07-23T03:57:38;13.20;99.90
5796;DHT22;2924;51.458;7.046;2022-07-23T04:00:05;13.30;99.90
5796;DHT22;2924;51.458;7.046;2022-07-23T04:02:32;13.40;99.90
5796;DHT22;2924;51.458;7.046;2022-07-23T04:04:58;13.40;99.90
5796;DHT22;2924;51.458;7.046;2022-07-23T04:07:25;13.40;99.90
5796;DHT22;2924;51.458;7.046;2022-07-23T04:09:50;13.40;99.90
5796;DHT22;2924;51.458;7.046;2022-07-23T04:12:16;13.40;99.90
5796;DHT22;2924;51.458;7.046;2022-07-23T04:14:42;13.40;99.90
5796;DHT22;2924;51.458;7.046;2022-07-23T04:17:08;13.40;99.90
5796;DHT22;2924;51.458;7.046;2022-07-23T04:19:33;13.40;99.90
5796;DHT22;2924;51.458;7.046;2022-07-23T04:22:00;13.40;99.90
5796;DHT22;2924;51.458;7.046;2022-07-23T04:24:26;13.40;99.90
5796;DHT22;2924;51.458;7.046;2022-07-23T04:26:52;13.50;99.90
5796;DHT22;2924;51.458;7.046;2022-07-23T04:29:18;13.50;99.90
5796;DHT22;2924;51.458;7.046;2022-07-23T04:31:44;13.60;99.90
5796;DHT22;2924;51.458;7.046;2022-07-23T04:34:09;13.60;99.90
5796;DHT22;2924;51.458;7.046;2022-07-23T04:36:35;13.70;99.90
5796;DHT22;2924;51.458;7.046;2022-07-23T04:39:01;13.90;99.90
5796;DHT22;2924;51.458;7.046;2022-07-23T04:41:26;14.30;99.90
5796;DHT22;2924;51.458;7.046;2022-07-23T04:43:52;14.70;99.90
5796;DHT22;2924;51.458;7.046;2022-07-23T04:46:18;15.10;99.90
5796;DHT22;2924;51.458;7.046;2022-07-23T04:48:43;15.40;99.90
5796;DHT22;2924;51.458;7.046;2022-07-23T04:51:09;15.80;99.90
5796;DHT22;2924;51.458;7.046;2022-07-23T04:53:37;16.10;99.90
5796;DHT22;2924;51.458;7.046;2022-07-23T04:56:04;16.40;99.90
5796;DHT22;2924;51.458;7.046;2022-07-23T04:58:29;16.70;99.90
5796;DHT22;2924;51.458;7.046;2022-07-23T05:00:57;16.90;99.90
5796;DHT22;2924;51.458;7.046;2022-07-23T05:03:23;17.20;99.90
5796;DHT22;2924;51.458;7.046;2022-07-23T05:05:49;17.50;99.90
5796;DHT22;2924;51.458;7.046;2022-07-23T05:08:15;17.80;99.90
5796;DHT22;2924;51.458;7.046;2022-07-23T05:10:41;18.30;99.90
5796;DHT22;2924;51.458;7.046;2022-07-23T05:13:06;18.70;99.90
5796;DHT22;2924;51.458;7.046;2022-07-23T05:15:32;19.10;99.90
5796;DHT22;2924;51.458;7.046;2022-07-23T05:17:58;19.40;99.90
5796;DHT22;2924;51.458;7.046;2022-07-23T05:20:24;19.60;99.90
5796;DHT22;2924;51.458;7.046;2022-07-23T05:22:49;19.70;99.90
5796;DHT22;2924;51.458;7.046;2022-07-23T05:25:15;19.60;99.90
5796;DHT22;2924;51.458;7.046;2022-07-23T05:27:41;19.50;99.90
5796;DHT22;2924;51.458;7.046;2022-07-23T05:30:07;19.30;99.90
5796;DHT22;2924;51.458;7.046;2022-07-23T05:32:33;19.10;99.90
5796;DHT22;2924;51.458;7.046;2022-07-23T05:34:59;18.80;99.90
5796;DHT22;2924;51.458;7.046;2022-07-23T05:37:24;18.60;99.90
5796;DHT22;2924;51.458;7.046;2022-07-23T05:39:50;18.40;99.90
5796;DHT22;2924;51.458;7.046;2022-07-23T05:42:16;18.40;99.90
5796;DHT22;2924;51.458;7.046;2022-07-23T05:44:42;18.40;99.90
5796;DHT22;2924;51.458;7.046;2022-07-23T05:47:07;17.90;99.90
5796;DHT22;2924;51.458;7.046;2022-07-23T05:49:33;17.90;99.90
5796;DHT22;2924;51.458;7.046;2022-07-23T05:52:02;17.90;99.90
5796;DHT22;2924;51.458;7.046;2022-07-23T05:54:28;18.10;99.90
5796;DHT22;2924;51.458;7.046;2022-07-23T05:56:54;18.30;99.90
5796;DHT22;2924;51.458;7.046;2022-07-23T05:59:19;18.60;99.90
5796;DHT22;2924;51.458;7.046;2022-07-23T06:01:45;18.80;99.90
5796;DHT22;2924;51.458;7.046;2022-07-23T06:04:11;19.00;99.90
5796;DHT22;2924;51.458;7.046;2022-07-23T06:06:36;19.10;99.90
5796;DHT22;2924;51.458;7.046;2022-07-23T06:09:03;19.30;99.90
5796;DHT22;2924;51.458;7.046;2022-07-23T06:11:28;19.40;99.90
5796;DHT22;2924;51.458;7.046;2022-07-23T06:13:55;19.50;99.90
5796;DHT22;2924;51.458;7.046;2022-07-23T06:16:20;19.70;99.90
5796;DHT22;2924;51.458;7.046;2022-07-23T06:18:46;19.90;99.90
5796;DHT22;2924;51.458;7.046;2022-07-23T06:21:12;20.00;99.90
5796;DHT22;2924;51.458;7.046;2022-07-23T06:23:37;20.10;99.90
5796;DHT22;2924;51.458;7.046;2022-07-23T06:26:03;20.30;99.90
5796;DHT22;2924;51.458;7.046;2022-07-23T06:28:29;20.40;99.90
5796;DHT22;2924;51.458;7.046;2022-07-23T06:30:54;20.50;99.90
5796;DHT22;2924;51.458;7.046;2022-07-23T06:33:20;20.80;99.90
5796;DHT22;2924;51.458;7.046;2022-07-23T06:35:46;21.00;99.90
5796;DHT22;2924;51.458;7.046;2022-07-23T06:38:11;21.20;99.90
5796;DHT22;2924;51.458;7.046;2022-07-23T06:40:38;21.40;99.90
5796;DHT22;2924;51.458;7.046;2022-07-23T06:43:03;21.50;99.90
5796;DHT22;2924;51.458;7.046;2022-07-23T06:45:29;22.00;99.90
5796;DHT22;2924;51.458;7.046;2022-07-23T06:47:55;22.40;99.90
5796;DHT22;2924;51.458;7.046;2022-07-23T06:50:20;23.10;99.90
5796;DHT22;2924;51.458;7.046;2022-07-23T06:52:46;23.90;99.90
5796;DHT22;2924;51.458;7.046;2022-07-23T06:55:12;24.80;99.90
5796;DHT22;2924;51.458;7.046;2022-07-23T06:57:38;25.60;99.90
5796;DHT22;2924;51.458;7.046;2022-07-23T07:00:04;26.20;99.90
5796;DHT22;2924;51.458;7.046;2022-07-23T07:02:30;26.40;99.90
5796;DHT22;2924;51.458;7.046;2022-07-23T07:04:55;26.10;99.90
5796;DHT22;2924;51.458;7.046;2022-07-23T07:07:21;25.40;99.90
5796;DHT22;2924;51.458;7.046;2022-07-23T07:09:47;25.10;99.90
5796;DHT22;2924;51.458;7.046;2022-07-23T07:12:13;25.20;99.90
5796;DHT22;2924;51.458;7.046;2022-07-23T07:14:38;25.80;99.90
5796;DHT22;2924;51.458;7.046;2022-07-23T07:17:04;26.70;99.90
5796;DHT22;2924;51.458;7.046;2022-07-23T07:19:30;27.10;99.90
5796;DHT22;2924;51.458;7.046;2022-07-23T07:21:55;27.30;99.90
5796;DHT22;2924;51.458;7.046;2022-07-23T07:24:21;27.60;99.90
5796;DHT22;2924;51.458;7.046;2022-07-23T07:26:47;27.20;99.90
5796;DHT22;2924;51.458;7.046;2022-07-23T07:29:13;27.00;99.90
5796;DHT22;2924;51.458;7.046;2022-07-23T07:31:38;26.60;99.90
5796;DHT22;2924;51.458;7.046;2022-07-23T07:34:04;26.00;99.90
5796;DHT22;2924;51.458;7.046;2022-07-23T07:36:30;25.50;99.90
5796;DHT22;2924;51.458;7.046;2022-07-23T07:38:56;25.10;99.90
5796;DHT22;2924;51.458;7.046;2022-07-23T07:41:21;24.80;99.90
5796;DHT22;2924;51.458;7.046;2022-07-23T07:43:50;24.80;99.90
5796;DHT22;2924;51.458;7.046;2022-07-23T07:46:16;24.70;99.90
5796;DHT22;2924;51.458;7.046;2022-07-23T07:48:42;24.80;99.90
5796;DHT22;2924;51.458;7.046;2022-07-23T07:51:08;25.30;99.90
5796;DHT22;2924;51.458;7.046;2022-07-23T07:53:33;25.50;99.90
5796;DHT22;2924;51.458;7.046;2022-07-23T07:55:59;25.30;99.90
5796;DHT22;2924;51.458;7.046;2022-07-23T07:58:25;25.00;99.90
5796;DHT22;2924;51.458;7.046;2022-07-23T08:00:50;24.80;99.90
5796;DHT22;2924;51.458;7.046;2022-07-23T08:03:16;24.50;99.90
5796;DHT22;2924;51.458;7.046;2022-07-23T08:05:42;24.80;99.90
5796;DHT22;2924;51.458;7.046;2022-07-23T08:08:08;25.50;99.90
5796;DHT22;2924;51.458;7.046;2022-07-23T08:10:35;26.20;99.90
5796;DHT22;2924;51.458;7.046;2022-07-23T08:13:01;26.50;99.90
5796;DHT22;2924;51.458;7.046;2022-07-23T08:15:28;26.50;99.90
5796;DHT22;2924;51.458;7.046;2022-07-23T08:17:55;26.50;99.90
5796;DHT22;2924;51.458;7.046;2022-07-23T08:20:22;26.40;99.90
5796;DHT22;2924;51.458;7.046;2022-07-23T08:22:57;26.50;99.90
5796;DHT22;2924;51.458;7.046;2022-07-23T08:25:29;26.50;99.90
5796;DHT22;2924;51.458;7.046;2022-07-23T08:27:55;27.00;99.90
5796;DHT22;2924;51.458;7.046;2022-07-23T08:30:21;27.20;99.70
5796;DHT22;2924;51.458;7.046;2022-07-23T08:33:11;27.20;98.90
5796;DHT22;2924;51.458;7.046;2022-07-23T08:35:43;27.50;98.10
5796;DHT22;2924;51.458;7.046;2022-07-23T08:38:12;27.90;96.80
5796;DHT22;2924;51.458;7.046;2022-07-23T08:40:40;27.80;97.40
5796;DHT22;2924;51.458;7.046;2022-07-23T08:43:09;29.00;96.60
5796;DHT22;2924;51.458;7.046;2022-07-23T08:45:41;29.60;94.50
5796;DHT22;2924;51.458;7.046;2022-07-23T08:48:18;30.00;94.10
5796;DHT22;2924;51.458;7.046;2022-07-23T08:50:46;31.00;92.60
5796;DHT22;2924;51.458;7.046;2022-07-23T08:53:12;31.90;92.40
5796;DHT22;2924;51.458;7.046;2022-07-23T08:55:37;32.80;91.10
5796;DHT22;2924;51.458;7.046;2022-07-23T08:58:03;33.50;90.40
5796;DHT22;2924;51.458;7.046;2022-07-23T09:00:30;33.70;87.60
5796;DHT22;2924;51.458;7.046;2022-07-23T09:02:56;33.00;87.10
5796;DHT22;2924;51.458;7.046;2022-07-23T09:05:21;32.60;86.60
5796;DHT22;2924;51.458;7.046;2022-07-23T09:10:51;33.30;86.20
5796;DHT22;2924;51.458;7.046;2022-07-23T09:13:38;33.70;85.30
5796;DHT22;2924;51.458;7.046;2022-07-23T09:18:49;35.10;82.20
5796;DHT22;2924;51.458;7.046;2022-07-23T09:23:46;35.80;81.40
5796;DHT22;2924;51.458;7.046;2022-07-23T09:31:22;35.30;78.10
5796;DHT22;2924;51.458;7.046;2022-07-23T09:33:47;35.10;77.00
5796;DHT22;2924;51.458;7.046;2022-07-23T09:36:13;34.80;77.50
5796;DHT22;2924;51.458;7.046;2022-07-23T09:38:50;32.00;79.40
5796;DHT22;2924;51.458;7.046;2022-07-23T09:41:16;32.20;80.20
5796;DHT22;2924;51.458;7.046;2022-07-23T09:43:42;32.30;80.10
5796;DHT22;2924;51.458;7.046;2022-07-23T09:46:26;32.60;78.90
5796;DHT22;2924;51.458;7.046;2022-07-23T09:48:54;33.30;79.00
5796;DHT22;2924;51.458;7.046;2022-07-23T09:51:21;34.20;78.80
5796;DHT22;2924;51.458;7.046;2022-07-23T09:54:00;35.10;75.50
5796;DHT22;2924;51.458;7.046;2022-07-23T09:56:27;35.40;75.20
5796;DHT22;2924;51.458;7.046;2022-07-23T09:58:53;35.70;74.00
5796;DHT22;2924;51.458;7.046;2022-07-23T10:01:31;35.60;73.30
5796;DHT22;2924;51.458;7.046;2022-07-23T10:03:57;35.00;73.00
5796;DHT22;2924;51.458;7.046;2022-07-23T10:06:23;35.00;74.50
5796;DHT22;2924;51.458;7.046;2022-07-23T10:08:49;35.20;73.70
5796;DHT22;2924;51.458;7.046;2022-07-23T10:11:16;35.60;73.10
5796;DHT22;2924;51.458;7.046;2022-07-23T10:13:43;35.60;72.80
5796;DHT22;2924;51.458;7.046;2022-07-23T10:16:16;35.60;73.10
5796;DHT22;2924;51.458;7.046;2022-07-23T10:18:43;35.60;73.30
5796;DHT22;2924;51.458;7.046;2022-07-23T10:21:10;35.50;72.60
5796;DHT22;2924;51.458;7.046;2022-07-23T10:23:47;35.30;74.00
5796;DHT22;2924;51.458;7.046;2022-07-23T10:29:46;35.60;73.30
5796;DHT22;2924;51.458;7.046;2022-07-23T10:32:37;35.00;72.10
5796;DHT22;2924;51.458;7.046;2022-07-23T10:37:56;34.50;73.80
5796;DHT22;2924;51.458;7.046;2022-07-23T10:40:22;35.00;72.00
5796;DHT22;2924;51.458;7.046;2022-07-23T10:42:52;34.90;72.90
5796;DHT22;2924;51.458;7.046;2022-07-23T10:45:32;35.30;72.40
5796;DHT22;2924;51.458;7.046;2022-07-23T10:48:16;35.90;71.60
5796;DHT22;2924;51.458;7.046;2022-07-23T10:50:43;36.30;71.00
5796;DHT22;2924;51.458;7.046;2022-07-23T10:53:17;36.10;70.00
5796;DHT22;2924;51.458;7.046;2022-07-23T10:55:51;35.70;70.30
5796;DHT22;2924;51.458;7.046;2022-07-23T10:58:20;36.20;70.30
5796;DHT22;2924;51.458;7.046;2022-07-23T11:00:45;36.60;69.70
5796;DHT22;2924;51.458;7.046;2022-07-23T11:03:32;37.30;70.00
5796;DHT22;2924;51.458;7.046;2022-07-23T11:05:59;37.80;68.60
5796;DHT22;2924;51.458;7.046;2022-07-23T11:08:24;37.30;68.60
5796;DHT22;2924;51.458;7.046;2022-07-23T11:10:52;37.10;68.70
5796;DHT22;2924;51.458;7.046;2022-07-23T11:32:01;34.10;71.10
5796;DHT22;2924;51.458;7.046;2022-07-23T11:34:41;34.60;70.60
5796;DHT22;2924;51.458;7.046;2022-07-23T11:37:09;34.50;69.30
5796;DHT22;2924;51.458;7.046;2022-07-23T11:39:35;34.60;70.40
5796;DHT22;2924;51.458;7.046;2022-07-23T11:42:03;34.90;69.70
5796;DHT22;2924;51.458;7.046;2022-07-23T11:44:38;35.20;68.60
5796;DHT22;2924;51.458;7.046;2022-07-23T11:47:09;35.40;69.00
5796;DHT22;2924;51.458;7.046;2022-07-23T11:49:35;35.50;69.40
5796;DHT22;2924;51.458;7.046;2022-07-23T11:52:13;34.30;68.30
5796;DHT22;2924;51.458;7.046;2022-07-23T11:57:24;34.70;68.90
5796;DHT22;2924;51.458;7.046;2022-07-23T11:59:53;35.00;68.70
5796;DHT22;2924;51.458;7.046;2022-07-23T12:02:21;35.20;67.90
5796;DHT22;2924;51.458;7.046;2022-07-23T12:04:50;35.30;67.70
5796;DHT22;2924;51.458;7.046;2022-07-23T12:07:34;35.40;67.80
5796;DHT22;2924;51.458;7.046;2022-07-23T12:10:42;35.60;67.90
5796;DHT22;2924;51.458;7.046;2022-07-23T12:13:27;36.00;66.90
5796;DHT22;2924;51.458;7.046;2022-07-23T12:15:56;36.20;67.50
5796;DHT22;2924;51.458;7.046;2022-07-23T12:18:26;36.30;67.50
5796;DHT22;2924;51.458;7.046;2022-07-23T12:20:56;36.40;68.40
5796;DHT22;2924;51.458;7.046;2022-07-23T12:23:25;36.80;67.60
5796;DHT22;2924;51.458;7.046;2022-07-23T12:25:53;36.80;66.30
5796;DHT22;2924;51.458;7.046;2022-07-23T12:28:21;36.40;66.80
5796;DHT22;2924;51.458;7.046;2022-07-23T12:30:51;36.40;66.00
5796;DHT22;2924;51.458;7.046;2022-07-23T12:33:32;36.60;66.30
5796;DHT22;2924;51.458;7.046;2022-07-23T12:36:00;36.80;66.90
5796;DHT22;2924;51.458;7.046;2022-07-23T12:38:28;36.90;65.70
5796;DHT22;2924;51.458;7.046;2022-07-23T12:41:01;36.00;64.70
5796;DHT22;2924;51.458;7.046;2022-07-23T12:43:32;34.80;66.30
5796;DHT22;2924;51.458;7.046;2022-07-23T12:46:12;35.10;67.10
5796;DHT22;2924;51.458;7.046;2022-07-23T12:48:51;35.80;67.10
5796;DHT22;2924;51.458;7.046;2022-07-23T12:51:28;36.10;66.50
5796;DHT22;2924;51.458;7.046;2022-07-23T12:56:29;36.70;67.20
5796;DHT22;2924;51.458;7.046;2022-07-23T12:59:06;36.80;66.80
5796;DHT22;2924;51.458;7.046;2022-07-23T13:01:37;37.20;66.70
5796;DHT22;2924;51.458;7.046;2022-07-23T13:04:13;37.10;66.10
5796;DHT22;2924;51.458;7.046;2022-07-23T13:06:44;37.30;66.40
5796;DHT22;2924;51.458;7.046;2022-07-23T13:09:19;37.40;65.20
5796;DHT22;2924;51.458;7.046;2022-07-23T13:11:46;37.10;64.80
5796;DHT22;2924;51.458;7.046;2022-07-23T13:14:13;37.20;65.30
5796;DHT22;2924;51.458;7.046;2022-07-23T13:16:40;37.10;65.80
5796;DHT22;2924;51.458;7.046;2022-07-23T13:19:07;36.90;64.70
5796;DHT22;2924;51.458;7.046;2022-07-23T13:21:33;36.40;65.60
5796;DHT22;2924;51.458;7.046;2022-07-23T13:23:59;35.80;65.40
5796;DHT22;2924;51.458;7.046;2022-07-23T13:26:25;35.80;65.80
5796;DHT22;2924;51.458;7.046;2022-07-23T13:28:51;36.00;65.50
5796;DHT22;2924;51.458;7.046;2022-07-23T13:31:17;35.90;65.00
5796;DHT22;2924;51.458;7.046;2022-07-23T13:33:43;35.70;66.10
5796;DHT22;2924;51.458;7.046;2022-07-23T13:36:08;35.50;66.60
5796;DHT22;2924;51.458;7.046;2022-07-23T13:38:35;35.50;66.20
5796;DHT22;2924;51.458;7.046;2022-07-23T13:41:00;35.90;65.30
5796;DHT22;2924;51.458;7.046;2022-07-23T13:43:28;35.80;64.50
5796;DHT22;2924;51.458;7.046;2022-07-23T13:45:54;35.00;64.90
5796;DHT22;2924;51.458;7.046;2022-07-23T13:48:20;34.40;65.40
5796;DHT22;2924;51.458;7.046;2022-07-23T13:50:47;34.20;65.90
5796;DHT22;2924;51.458;7.046;2022-07-23T13:53:19;34.40;65.50
5796;DHT22;2924;51.458;7.046;2022-07-23T13:55:47;34.80;65.70
5796;DHT22;2924;51.458;7.046;2022-07-23T13:58:13;34.60;65.30
5796;DHT22;2924;51.458;7.046;2022-07-23T14:00:41;35.10;66.30
5796;DHT22;2924;51.458;7.046;2022-07-23T14:03:08;35.80;65.60
5796;DHT22;2924;51.458;7.046;2022-07-23T14:05:34;36.20;66.20
5796;DHT22;2924;51.458;7.046;2022-07-23T14:08:00;36.20;65.30
5796;DHT22;2924;51.458;7.046;2022-07-23T14:10:26;36.10;65.60
5796;DHT22;2924;51.458;7.046;2022-07-23T14:12:53;36.20;64.90
5796;DHT22;2924;51.458;7.046;2022-07-23T14:15:22;36.20;64.80
5796;DHT22;2924;51.458;7.046;2022-07-23T14:17:48;36.20;65.40
5796;DHT22;2924;51.458;7.046;2022-07-23T14:20:15;36.20;64.70
5796;DHT22;2924;51.458;7.046;2022-07-23T14:22:41;35.80;64.50
5796;DHT22;2924;51.458;7.046;2022-07-23T14:25:08;35.00;64.50
5796;DHT22;2924;51.458;7.046;2022-07-23T14:27:34;34.70;65.70
5796;DHT22;2924;51.458;7.046;2022-07-23T14:30:01;34.70;65.70
5796;DHT22;2924;51.458;7.046;2022-07-23T14:32:26;34.60;64.10
5796;DHT22;2924;51.458;7.046;2022-07-23T14:34:52;34.10;64.70
5796;DHT22;2924;51.458;7.046;2022-07-23T14:37:18;34.10;65.10
5796;DHT22;2924;51.458;7.046;2022-07-23T14:39:45;34.50;66.40
5796;DHT22;2924;51.458;7.046;2022-07-23T14:42:11;35.00;64.10
5796;DHT22;2924;51.458;7.046;2022-07-23T14:44:37;34.70;64.40
5796;DHT22;2924;51.458;7.046;2022-07-23T14:47:04;34.40;64.90
5796;DHT22;2924;51.458;7.046;2022-07-23T14:49:31;34.00;65.10
5796;DHT22;2924;51.458;7.046;2022-07-23T14:51:57;33.10;66.40
5796;DHT22;2924;51.458;7.046;2022-07-23T14:54:24;32.50;66.70
5796;DHT22;2924;51.458;7.046;2022-07-23T14:56:52;32.00;66.30
5796;DHT22;2924;51.458;7.046;2022-07-23T14:59:17;32.40;67.50
5796;DHT22;2924;51.458;7.046;2022-07-23T15:01:43;32.90;66.20
5796;DHT22;2924;51.458;7.046;2022-07-23T15:04:09;33.50;66.00
5796;DHT22;2924;51.458;7.046;2022-07-23T15:06:35;33.80;66.60
5796;DHT22;2924;51.458;7.046;2022-07-23T15:09:00;33.20;67.30
5796;DHT22;2924;51.458;7.046;2022-07-23T15:11:29;33.20;67.80
5796;DHT22;2924;51.458;7.046;2022-07-23T15:13:59;33.40;68.00
5796;DHT22;2924;51.458;7.046;2022-07-23T15:16:25;33.50;67.20
5796;DHT22;2924;51.458;7.046;2022-07-23T15:18:51;33.10;67.00
5796;DHT22;2924;51.458;7.046;2022-07-23T15:21:16;32.40;67.40
5796;DHT22;2924;51.458;7.046;2022-07-23T15:23:42;31.80;69.20
5796;DHT22;2924;51.458;7.046;2022-07-23T15:26:08;31.40;69.00
5796;DHT22;2924;51.458;7.046;2022-07-23T15:28:35;31.10;69.10
5796;DHT22;2924;51.458;7.046;2022-07-23T15:31:01;31.70;68.90
5796;DHT22;2924;51.458;7.046;2022-07-23T15:33:27;31.80;68.60
5796;DHT22;2924;51.458;7.046;2022-07-23T15:35:53;31.00;67.60
5796;DHT22;2924;51.458;7.046;2022-07-23T15:38:21;30.20;69.20
5796;DHT22;2924;51.458;7.046;2022-07-23T15:40:47;29.90;70.50
5796;DHT22;2924;51.458;7.046;2022-07-23T15:43:13;29.80;70.80
5796;DHT22;2924;51.458;7.046;2022-07-23T15:45:39;30.00;70.60
5796;DHT22;2924;51.458;7.046;2022-07-23T15:48:06;30.60;70.10
5796;DHT22;2924;51.458;7.046;2022-07-23T15:50:31;31.10;69.80
5796;DHT22;2924;51.458;7.046;2022-07-23T15:52:57;31.20;69.50
5796;DHT22;2924;51.458;7.046;2022-07-23T15:55:23;31.10;69.70
5796;DHT22;2924;51.458;7.046;2022-07-23T15:57:50;31.00;68.80
5796;DHT22;2924;51.458;7.046;2022-07-23T16:00:17;30.70;70.00
5796;DHT22;2924;51.458;7.046;2022-07-23T16:02:42;30.80;70.50
5796;DHT22;2924;51.458;7.046;2022-07-23T16:05:08;31.10;70.10
5796;DHT22;2924;51.458;7.046;2022-07-23T16:07:34;31.00;69.90
5796;DHT22;2924;51.458;7.046;2022-07-23T16:10:06;30.90;69.70
5796;DHT22;2924;51.458;7.046;2022-07-23T16:12:33;30.70;69.60
5796;DHT22;2924;51.458;7.046;2022-07-23T16:14:59;30.70;69.80
5796;DHT22;2924;51.458;7.046;2022-07-23T16:17:25;30.70;70.40
5796;DHT22;2924;51.458;7.046;2022-07-23T16:19:50;30.70;70.70
5796;DHT22;2924;51.458;7.046;2022-07-23T16:22:16;30.70;70.20
5796;DHT22;2924;51.458;7.046;2022-07-23T16:24:43;30.60;70.20
5796;DHT22;2924;51.458;7.046;2022-07-23T16:27:09;30.30;70.00
5796;DHT22;2924;51.458;7.046;2022-07-23T16:29:35;30.00;70.40
5796;DHT22;2924;51.458;7.046;2022-07-23T16:32:01;29.80;70.90
5796;DHT22;2924;51.458;7.046;2022-07-23T16:34:27;29.80;70.40
5796;DHT22;2924;51.458;7.046;2022-07-23T16:36:52;29.80;69.60
5796;DHT22;2924;51.458;7.046;2022-07-23T16:39:18;29.70;70.40
5796;DHT22;2924;51.458;7.046;2022-07-23T16:41:44;29.40;70.70
5796;DHT22;2924;51.458;7.046;2022-07-23T16:44:10;29.20;71.50
5796;DHT22;2924;51.458;7.046;2022-07-23T16:46:35;29.30;71.50